sensor_id;sensor_type;location;lat;lon;timestamp;pressure;altitude;pressure_sealevel;temperature;humidity
1472;BME280;963;42.644;23.336;2023-04-01T00:00:32;93283.25;;;13.91;50.89
1472;BME280;963;42.644;23.336;2023-04-01T00:02:57;93283.13;;;13.98;50.62
1472;BME280;963;42.644;23.336;2023-04-01T00:05:23;93290.66;;;14.00;50.62
1472;BME280;963;42.644;23.336;2023-04-01T00:07:51;93305.13;;;13.92;50.70
1472;BME280;963;42.644;23.336;2023-04-01T00:10:17;93290.66;;;14.00;49.77
1472;BME280;963;42.644;23.336;2023-04-01T00:12:43;93298.09;;;14.08;50.01
1472;BME280;963;42.644;23.336;2023-04-01T00:15:10;93308.16;;;13.60;51.76
1472;BME280;963;42.644;23.336;2023-04-01T00:17:37;93309.13;;;13.73;52.57
1472;BME280;963;42.644;23.336;2023-04-01T00:20:04;93307.09;;;13.16;53.95
1472;BME280;963;42.644;23.336;2023-04-01T00:22:30;93304.28;;;13.34;53.48
1472;BME280;963;42.644;23.336;2023-04-01T00:24:55;93309.09;;;13.05;54.43
1472;BME280;963;42.644;23.336;2023-04-01T00:27:21;93313.78;;;12.87;54.96
1472;BME280;963;42.644;23.336;2023-04-01T00:29:46;93313.00;;;12.90;54.55
1472;BME280;963;42.644;23.336;2023-04-01T00:32:13;93317.53;;;12.89;54.89
1472;BME280;963;42.644;23.336;2023-04-01T00:34:40;93315.94;;;12.50;56.13
1472;BME280;963;42.644;23.336;2023-04-01T00:37:06;93308.53;;;12.83;55.43
1472;BME280;963;42.644;23.336;2023-04-01T00:39:34;93304.22;;;13.00;54.81
1472;BME280;963;42.644;23.336;2023-04-01T00:42:00;93296.97;;;13.11;54.32
1472;BME280;963;42.644;23.336;2023-04-01T00:44:32;93281.88;;;13.11;54.46
1472;BME280;963;42.644;23.336;2023-04-01T00:46:59;93288.78;;;13.02;55.03
1472;BME280;963;42.644;23.336;2023-04-01T00:49:32;93276.56;;;13.15;55.14
1472;BME280;963;42.644;23.336;2023-04-01T00:52:00;93274.13;;;12.94;55.71
1472;BME280;963;42.644;23.336;2023-04-01T00:54:28;93270.66;;;12.59;55.95
1472;BME280;963;42.644;23.336;2023-04-01T00:57:19;93278.25;;;12.53;56.18
1472;BME280;963;42.644;23.336;2023-04-01T00:59:48;93267.31;;;12.55;56.53
1472;BME280;963;42.644;23.336;2023-04-01T01:02:18;93265.56;;;12.82;55.76
1472;BME280;963;42.644;23.336;2023-04-01T01:04:44;93272.16;;;12.60;56.36
1472;BME280;963;42.644;23.336;2023-04-01T01:07:31;93271.88;;;12.51;56.68
1472;BME280;963;42.644;23.336;2023-04-01T01:10:03;93253.19;;;12.31;56.86
1472;BME280;963;42.644;23.336;2023-04-01T01:24:36;93235.16;;;12.71;55.03
1472;BME280;963;42.644;23.336;2023-04-01T01:27:11;93236.78;;;12.54;55.34
1472;BME280;963;42.644;23.336;2023-04-01T01:37:37;93211.59;;;12.05;56.34
1472;BME280;963;42.644;23.336;2023-04-01T01:40:06;93212.03;;;11.96;55.60
1472;BME280;963;42.644;23.336;2023-04-01T01:42:35;93226.25;;;12.06;55.62
1472;BME280;963;42.644;23.336;2023-04-01T01:45:04;93202.88;;;12.11;55.58
1472;BME280;963;42.644;23.336;2023-04-01T01:47:31;93204.44;;;12.05;55.93
1472;BME280;963;42.644;23.336;2023-04-01T01:49:59;93211.63;;;12.46;54.98
1472;BME280;963;42.644;23.336;2023-04-01T01:52:27;93189.75;;;12.49;54.43
1472;BME280;963;42.644;23.336;2023-04-01T01:54:55;93204.44;;;12.50;54.47
1472;BME280;963;42.644;23.336;2023-04-01T01:57:34;93222.81;;;12.57;53.82
1472;BME280;963;42.644;23.336;2023-04-01T02:00:06;93190.72;;;12.66;53.88
1472;BME280;963;42.644;23.336;2023-04-01T02:02:39;93198.00;;;12.51;53.86
1472;BME280;963;42.644;23.336;2023-04-01T02:05:09;93176.97;;;12.44;53.79
1472;BME280;963;42.644;23.336;2023-04-01T02:07:37;93191.63;;;12.04;54.36
1472;BME280;963;42.644;23.336;2023-04-01T02:10:05;93193.34;;;12.25;53.88
1472;BME280;963;42.644;23.336;2023-04-01T02:12:32;93179.44;;;12.62;52.96
1472;BME280;963;42.644;23.336;2023-04-01T02:15:09;93169.94;;;12.71;51.85
1472;BME280;963;42.644;23.336;2023-04-01T02:17:39;93194.41;;;12.75;51.77
1472;BME280;963;42.644;23.336;2023-04-01T02:20:22;93186.66;;;12.92;51.46
1472;BME280;963;42.644;23.336;2023-04-01T02:22:54;93167.28;;;13.05;51.18
1472;BME280;963;42.644;23.336;2023-04-01T02:25:24;93163.03;;;13.15;51.26
1472;BME280;963;42.644;23.336;2023-04-01T02:27:51;93169.34;;;12.53;52.45
1472;BME280;963;42.644;23.336;2023-04-01T02:30:17;93164.50;;;12.86;51.53
1472;BME280;963;42.644;23.336;2023-04-01T02:32:44;93160.81;;;13.10;51.05
1472;BME280;963;42.644;23.336;2023-04-01T02:35:13;93187.78;;;13.28;50.91
1472;BME280;963;42.644;23.336;2023-04-01T02:37:40;93166.22;;;13.33;50.44
1472;BME280;963;42.644;23.336;2023-04-01T02:40:09;93163.91;;;13.35;50.38
1472;BME280;963;42.644;23.336;2023-04-01T02:42:35;93165.28;;;13.47;50.50
1472;BME280;963;42.644;23.336;2023-04-01T02:45:01;93178.78;;;13.53;50.15
1472;BME280;963;42.644;23.336;2023-04-01T02:47:26;93192.31;;;13.58;49.99
1472;BME280;963;42.644;23.336;2023-04-01T02:49:52;93183.22;;;13.59;50.21
1472;BME280;963;42.644;23.336;2023-04-01T02:52:26;93187.03;;;13.58;50.66
1472;BME280;963;42.644;23.336;2023-04-01T02:54:52;93191.50;;;13.61;50.55
1472;BME280;963;42.644;23.336;2023-04-01T02:57:18;93185.47;;;13.61;50.74
1472;BME280;963;42.644;23.336;2023-04-01T02:59:43;93198.34;;;13.59;50.96
1472;BME280;963;42.644;23.336;2023-04-01T03:02:09;93205.13;;;13.60;50.89
1472;BME280;963;42.644;23.336;2023-04-01T03:04:34;93186.38;;;13.51;50.42
1472;BME280;963;42.644;23.336;2023-04-01T03:07:00;93219.13;;;13.57;50.74
1472;BME280;963;42.644;23.336;2023-04-01T03:09:25;93207.75;;;13.60;51.03
1472;BME280;963;42.644;23.336;2023-04-01T03:11:51;93190.16;;;13.50;51.25
1472;BME280;963;42.644;23.336;2023-04-01T03:14:16;93210.44;;;13.56;51.07
1472;BME280;963;42.644;23.336;2023-04-01T03:16:42;93207.25;;;13.41;51.62
1472;BME280;963;42.644;23.336;2023-04-01T03:19:07;93200.53;;;13.33;51.78
1472;BME280;963;42.644;23.336;2023-04-01T03:21:33;93218.38;;;13.26;51.88
1472;BME280;963;42.644;23.336;2023-04-01T03:23:58;93218.97;;;13.37;51.58
1472;BME280;963;42.644;23.336;2023-04-01T03:26:24;93220.53;;;13.34;51.65
1472;BME280;963;42.644;23.336;2023-04-01T03:28:52;93208.81;;;13.35;51.33
1472;BME280;963;42.644;23.336;2023-04-01T03:31:18;93231.78;;;13.42;50.95
1472;BME280;963;42.644;23.336;2023-04-01T03:33:43;93223.59;;;13.29;51.92
1472;BME280;963;42.644;23.336;2023-04-01T03:36:08;93215.66;;;12.95;53.49
1472;BME280;963;42.644;23.336;2023-04-01T03:38:36;93207.50;;;13.20;51.01
1472;BME280;963;42.644;23.336;2023-04-01T03:41:03;93202.38;;;13.36;50.61
1472;BME280;963;42.644;23.336;2023-04-01T03:43:28;93196.25;;;13.47;49.91
1472;BME280;963;42.644;23.336;2023-04-01T03:45:54;93199.84;;;13.60;49.63
1472;BME280;963;42.644;23.336;2023-04-01T03:48:21;93186.63;;;13.60;50.38
1472;BME280;963;42.644;23.336;2023-04-01T03:50:47;93174.09;;;13.64;50.39
1472;BME280;963;42.644;23.336;2023-04-01T03:53:12;93167.97;;;13.70;50.72
1472;BME280;963;42.644;23.336;2023-04-01T03:55:38;93146.13;;;13.66;51.11
1472;BME280;963;42.644;23.336;2023-04-01T03:58:09;93128.84;;;13.62;50.92
1472;BME280;963;42.644;23.336;2023-04-01T04:00:35;93107.47;;;13.53;50.05
1472;BME280;963;42.644;23.336;2023-04-01T04:03:01;93097.47;;;13.40;49.73
1472;BME280;963;42.644;23.336;2023-04-01T04:05:26;93108.63;;;13.52;48.49
1472;BME280;963;42.644;23.336;2023-04-01T04:07:52;93104.53;;;13.70;47.95
1472;BME280;963;42.644;23.336;2023-04-01T04:10:19;93094.50;;;13.85;49.59
1472;BME280;963;42.644;23.336;2023-04-01T04:12:44;93090.59;;;13.93;49.52
1472;BME280;963;42.644;23.336;2023-04-01T04:15:11;93104.72;;;13.33;50.90
1472;BME280;963;42.644;23.336;2023-04-01T04:17:37;93091.91;;;13.31;51.18
1472;BME280;963;42.644;23.336;2023-04-01T04:20:02;93083.25;;;13.31;52.00
1472;BME280;963;42.644;23.336;2023-04-01T04:22:28;93084.16;;;13.48;51.66
1472;BME280;963;42.644;23.336;2023-04-01T04:24:53;93086.59;;;13.04;52.93
1472;BME280;963;42.644;23.336;2023-04-01T04:27:19;93073.47;;;12.70;54.00
1472;BME280;963;42.644;23.336;2023-04-01T04:29:45;93072.84;;;12.90;53.41
1472;BME280;963;42.644;23.336;2023-04-01T04:32:10;93075.31;;;12.73;54.08
1472;BME280;963;42.644;23.336;2023-04-01T04:34:36;93074.84;;;12.48;54.57
1472;BME280;963;42.644;23.336;2023-04-01T04:37:01;93067.41;;;12.39;54.85
1472;BME280;963;42.644;23.336;2023-04-01T04:39:26;93036.38;;;12.50;54.25
1472;BME280;963;42.644;23.336;2023-04-01T04:41:52;93073.34;;;12.09;54.93
1472;BME280;963;42.644;23.336;2023-04-01T04:44:17;93052.47;;;11.92;55.44
1472;BME280;963;42.644;23.336;2023-04-01T04:46:43;93039.88;;;12.06;54.86
1472;BME280;963;42.644;23.336;2023-04-01T04:49:08;93034.59;;;12.06;54.70
1472;BME280;963;42.644;23.336;2023-04-01T04:51:33;93003.69;;;12.10;54.78
1472;BME280;963;42.644;23.336;2023-04-01T04:54:03;93021.03;;;12.42;54.13
1472;BME280;963;42.644;23.336;2023-04-01T04:56:30;93030.19;;;12.64;53.68
1472;BME280;963;42.644;23.336;2023-04-01T04:58:56;93028.50;;;12.77;53.42
1472;BME280;963;42.644;23.336;2023-04-01T05:01:22;93036.69;;;12.87;54.26
1472;BME280;963;42.644;23.336;2023-04-01T05:03:48;93039.31;;;12.87;55.12
1472;BME280;963;42.644;23.336;2023-04-01T05:06:14;93030.16;;;12.95;54.97
1472;BME280;963;42.644;23.336;2023-04-01T05:08:41;93021.53;;;12.91;54.85
1472;BME280;963;42.644;23.336;2023-04-01T05:11:11;93027.84;;;12.97;55.09
1472;BME280;963;42.644;23.336;2023-04-01T05:13:37;93022.59;;;12.97;54.92
1472;BME280;963;42.644;23.336;2023-04-01T05:16:03;93033.13;;;12.97;55.13
1472;BME280;963;42.644;23.336;2023-04-01T05:18:28;93027.38;;;12.78;55.60
1472;BME280;963;42.644;23.336;2023-04-01T05:20:54;93029.06;;;12.65;56.05
1472;BME280;963;42.644;23.336;2023-04-01T05:23:21;92998.88;;;12.66;55.68
1472;BME280;963;42.644;23.336;2023-04-01T05:25:48;92997.25;;;12.45;56.35
1472;BME280;963;42.644;23.336;2023-04-01T05:28:14;92985.97;;;12.45;56.18
1472;BME280;963;42.644;23.336;2023-04-01T05:30:40;93011.78;;;12.57;56.22
1472;BME280;963;42.644;23.336;2023-04-01T05:33:07;92977.59;;;12.50;54.94
1472;BME280;963;42.644;23.336;2023-04-01T05:35:33;92996.84;;;12.47;55.17
1472;BME280;963;42.644;23.336;2023-04-01T05:37:58;93001.88;;;12.68;54.68
1472;BME280;963;42.644;23.336;2023-04-01T05:40:24;93007.75;;;12.79;54.49
1472;BME280;963;42.644;23.336;2023-04-01T05:42:49;93001.56;;;12.90;54.69
1472;BME280;963;42.644;23.336;2023-04-01T05:45:15;92995.16;;;12.91;54.77
1472;BME280;963;42.644;23.336;2023-04-01T05:47:41;92973.44;;;12.79;54.88
1472;BME280;963;42.644;23.336;2023-04-01T05:50:10;92998.63;;;12.84;54.85
1472;BME280;963;42.644;23.336;2023-04-01T05:52:36;92999.84;;;13.06;54.09
1472;BME280;963;42.644;23.336;2023-04-01T05:55:03;92993.72;;;13.13;53.62
1472;BME280;963;42.644;23.336;2023-04-01T05:57:29;92989.03;;;13.24;52.97
1472;BME280;963;42.644;23.336;2023-04-01T05:59:54;92986.25;;;13.08;53.73
1472;BME280;963;42.644;23.336;2023-04-01T06:02:20;92973.19;;;13.24;53.47
1472;BME280;963;42.644;23.336;2023-04-01T06:04:46;92987.22;;;13.44;53.21
1472;BME280;963;42.644;23.336;2023-04-01T06:07:17;92980.94;;;13.58;52.26
1472;BME280;963;42.644;23.336;2023-04-01T06:09:43;92983.38;;;13.69;52.11
1472;BME280;963;42.644;23.336;2023-04-01T06:25:56;92974.69;;;14.12;49.58
1472;BME280;963;42.644;23.336;2023-04-01T06:31:05;92974.75;;;14.08;49.27
1472;BME280;963;42.644;23.336;2023-04-01T06:36:22;92954.75;;;14.27;48.53
1472;BME280;963;42.644;23.336;2023-04-01T06:47:02;92919.75;;;14.39;48.65
1472;BME280;963;42.644;23.336;2023-04-01T06:52:46;92950.81;;;14.55;48.60
1472;BME280;963;42.644;23.336;2023-04-01T06:57:56;92933.94;;;14.49;48.65
1472;BME280;963;42.644;23.336;2023-04-01T07:00:31;92924.63;;;14.60;48.94
1472;BME280;963;42.644;23.336;2023-04-01T07:05:31;92929.09;;;14.63;48.78
1472;BME280;963;42.644;23.336;2023-04-01T07:07:59;92935.06;;;14.67;48.92
1472;BME280;963;42.644;23.336;2023-04-01T07:10:40;92943.72;;;14.52;49.89
1472;BME280;963;42.644;23.336;2023-04-01T07:13:41;92918.66;;;14.56;50.19
1472;BME280;963;42.644;23.336;2023-04-01T07:21:04;92910.47;;;14.51;51.44
1472;BME280;963;42.644;23.336;2023-04-01T07:23:42;92906.66;;;14.32;52.40
1472;BME280;963;42.644;23.336;2023-04-01T07:26:19;92931.69;;;14.47;52.43
1472;BME280;963;42.644;23.336;2023-04-01T07:28:45;92935.69;;;14.35;52.83
1472;BME280;963;42.644;23.336;2023-04-01T07:36:14;92908.16;;;14.53;52.67
1472;BME280;963;42.644;23.336;2023-04-01T07:39:09;92936.88;;;14.70;51.98
1472;BME280;963;42.644;23.336;2023-04-01T07:42:00;92926.31;;;14.87;51.87
1472;BME280;963;42.644;23.336;2023-04-01T07:47:34;92906.38;;;14.98;51.60
1472;BME280;963;42.644;23.336;2023-04-01T07:50:18;92913.91;;;15.00;51.47
1472;BME280;963;42.644;23.336;2023-04-01T08:00:21;92910.41;;;15.03;51.89
1472;BME280;963;42.644;23.336;2023-04-01T08:05:26;92908.34;;;14.78;52.68
1472;BME280;963;42.644;23.336;2023-04-01T08:08:05;92903.06;;;15.11;52.11
1472;BME280;963;42.644;23.336;2023-04-01T08:10:53;92883.59;;;15.17;51.61
1472;BME280;963;42.644;23.336;2023-04-01T08:13:53;92872.41;;;15.26;51.62
1472;BME280;963;42.644;23.336;2023-04-01T08:21:52;92874.94;;;15.46;51.36
1472;BME280;963;42.644;23.336;2023-04-01T08:24:33;92874.00;;;15.52;51.50
1472;BME280;963;42.644;23.336;2023-04-01T08:27:05;92867.72;;;15.62;51.02
1472;BME280;963;42.644;23.336;2023-04-01T08:30:06;92843.78;;;15.66;51.36
1472;BME280;963;42.644;23.336;2023-04-01T08:32:41;92849.84;;;15.79;50.85
1472;BME280;963;42.644;23.336;2023-04-01T08:35:30;92828.00;;;15.75;51.05
1472;BME280;963;42.644;23.336;2023-04-01T08:38:01;92822.59;;;15.91;50.89
1472;BME280;963;42.644;23.336;2023-04-01T08:46:47;92791.53;;;16.30;49.32
1472;BME280;963;42.644;23.336;2023-04-01T08:52:25;92790.47;;;16.53;48.96
1472;BME280;963;42.644;23.336;2023-04-01T09:00:56;92782.06;;;16.80;47.51
1472;BME280;963;42.644;23.336;2023-04-01T09:11:20;92792.34;;;17.47;45.70
1472;BME280;963;42.644;23.336;2023-04-01T09:24:58;92781.19;;;18.05;43.50
1472;BME280;963;42.644;23.336;2023-04-01T09:27:53;92763.38;;;18.24;42.63
1472;BME280;963;42.644;23.336;2023-04-01T09:36:11;92749.19;;;18.27;41.37
1472;BME280;963;42.644;23.336;2023-04-01T09:39:04;92766.66;;;17.97;41.85
1472;BME280;963;42.644;23.336;2023-04-01T09:44:42;92726.81;;;18.15;40.83
1472;BME280;963;42.644;23.336;2023-04-01T09:53:07;92717.59;;;18.56;40.03
1472;BME280;963;42.644;23.336;2023-04-01T09:56:01;92721.94;;;18.81;40.31
1472;BME280;963;42.644;23.336;2023-04-01T09:58:39;92730.25;;;19.01;40.25
1472;BME280;963;42.644;23.336;2023-04-01T10:38:16;92659.81;;;19.96;39.07
1472;BME280;963;42.644;23.336;2023-04-01T10:41:04;92663.19;;;20.06;39.50
1472;BME280;963;42.644;23.336;2023-04-01T11:14:57;92625.25;;;19.17;38.39
1472;BME280;963;42.644;23.336;2023-04-01T11:20:21;92642.28;;;18.92;36.30
1472;BME280;963;42.644;23.336;2023-04-01T11:25:41;92665.72;;;18.70;37.46
1472;BME280;963;42.644;23.336;2023-04-01T11:31:01;92675.97;;;18.22;38.87
1472;BME280;963;42.644;23.336;2023-04-01T11:33:34;92680.56;;;18.22;39.10
1472;BME280;963;42.644;23.336;2023-04-01T11:39:00;92716.50;;;18.26;38.88
1472;BME280;963;42.644;23.336;2023-04-01T11:44:18;92752.03;;;17.48;44.96
1472;BME280;963;42.644;23.336;2023-04-01T11:47:00;92768.91;;;17.55;45.98
1472;BME280;963;42.644;23.336;2023-04-01T12:11:05;92878.47;;;14.61;68.90
1472;BME280;963;42.644;23.336;2023-04-01T12:19:26;92859.78;;;14.68;72.23
1472;BME280;963;42.644;23.336;2023-04-01T12:22:33;92845.72;;;14.72;74.19
1472;BME280;963;42.644;23.336;2023-04-01T12:24:59;92851.34;;;13.85;77.65
1472;BME280;963;42.644;23.336;2023-04-01T12:38:14;92865.25;;;14.94;71.54
1472;BME280;963;42.644;23.336;2023-04-01T12:40:56;92884.44;;;14.98;71.34
1472;BME280;963;42.644;23.336;2023-04-01T12:46:25;92881.28;;;14.70;70.89
1472;BME280;963;42.644;23.336;2023-04-01T13:10:59;92877.50;;;14.35;74.75
1472;BME280;963;42.644;23.336;2023-04-01T13:16:37;92806.97;;;13.76;69.11
1472;BME280;963;42.644;23.336;2023-04-01T13:19:38;92781.72;;;13.56;77.34
1472;BME280;963;42.644;23.336;2023-04-01T13:27:38;92800.06;;;14.67;75.24
1472;BME280;963;42.644;23.336;2023-04-01T13:30:35;92796.28;;;15.14;73.69
1472;BME280;963;42.644;23.336;2023-04-01T13:33:16;92782.63;;;15.57;68.33
1472;BME280;963;42.644;23.336;2023-04-01T13:35:52;92780.16;;;15.91;67.76
1472;BME280;963;42.644;23.336;2023-04-01T13:38:51;92780.28;;;16.51;64.83
1472;BME280;963;42.644;23.336;2023-04-01T13:44:29;92760.72;;;16.71;65.61
1472;BME280;963;42.644;23.336;2023-04-01T14:22:03;92717.41;;;17.39;51.54
1472;BME280;963;42.644;23.336;2023-04-01T14:24:41;92684.63;;;17.42;50.87
1472;BME280;963;42.644;23.336;2023-04-01T14:27:35;92700.09;;;17.35;52.86
1472;BME280;963;42.644;23.336;2023-04-01T14:38:45;92686.59;;;15.53;64.89
1472;BME280;963;42.644;23.336;2023-04-01T14:44:05;92699.25;;;16.00;64.07
1472;BME280;963;42.644;23.336;2023-04-01T14:49:36;92697.25;;;16.51;63.02
1472;BME280;963;42.644;23.336;2023-04-01T14:54:44;92672.38;;;16.23;63.08
1472;BME280;963;42.644;23.336;2023-04-01T14:57:16;92680.00;;;16.68;62.64
1472;BME280;963;42.644;23.336;2023-04-01T14:59:54;92673.38;;;15.66;64.31
1472;BME280;963;42.644;23.336;2023-04-01T15:02:36;92699.13;;;16.16;63.60
1472;BME280;963;42.644;23.336;2023-04-01T15:08:05;92707.00;;;16.07;62.05
1472;BME280;963;42.644;23.336;2023-04-01T15:29:47;92713.28;;;15.33;63.69
1472;BME280;963;42.644;23.336;2023-04-01T15:35:30;92704.66;;;15.96;60.64
1472;BME280;963;42.644;23.336;2023-04-01T15:38:30;92700.50;;;16.08;60.78
1472;BME280;963;42.644;23.336;2023-04-01T15:49:23;92733.91;;;16.18;63.77
1472;BME280;963;42.644;23.336;2023-04-01T15:52:05;92861.69;;;16.16;62.50
1472;BME280;963;42.644;23.336;2023-04-01T15:57:32;92899.16;;;14.66;56.10
1472;BME280;963;42.644;23.336;2023-04-01T16:21:54;92991.13;;;12.21;69.38
1472;BME280;963;42.644;23.336;2023-04-01T16:24:40;92989.81;;;12.06;69.30
1472;BME280;963;42.644;23.336;2023-04-01T16:29:49;92995.63;;;11.91;68.72
1472;BME280;963;42.644;23.336;2023-04-01T16:32:29;93000.97;;;11.80;69.76
1472;BME280;963;42.644;23.336;2023-04-01T16:35:04;93009.84;;;11.55;70.01
1472;BME280;963;42.644;23.336;2023-04-01T16:37:49;92990.59;;;11.62;69.63
1472;BME280;963;42.644;23.336;2023-04-01T16:40:24;93008.22;;;11.69;69.31
1472;BME280;963;42.644;23.336;2023-04-01T16:43:13;93003.72;;;11.66;69.76
1472;BME280;963;42.644;23.336;2023-04-01T16:46:17;93006.41;;;12.03;68.72
1472;BME280;963;42.644;23.336;2023-04-01T16:51:44;92990.09;;;11.74;67.44
1472;BME280;963;42.644;23.336;2023-04-01T16:57:19;93007.00;;;11.36;68.59
1472;BME280;963;42.644;23.336;2023-04-01T17:02:37;92983.94;;;11.92;69.46
1472;BME280;963;42.644;23.336;2023-04-01T17:05:11;92966.34;;;11.40;67.61
1472;BME280;963;42.644;23.336;2023-04-01T17:08:04;92989.94;;;11.51;67.75
1472;BME280;963;42.644;23.336;2023-04-01T17:21:48;93020.56;;;11.31;66.18
1472;BME280;963;42.644;23.336;2023-04-01T17:30:18;93017.63;;;11.25;66.06
1472;BME280;963;42.644;23.336;2023-04-01T17:33:11;93017.34;;;11.09;66.64
1472;BME280;963;42.644;23.336;2023-04-01T17:35:49;93044.78;;;11.08;66.59
1472;BME280;963;42.644;23.336;2023-04-01T17:52:31;93056.53;;;10.96;67.13
1472;BME280;963;42.644;23.336;2023-04-01T17:57:55;93068.25;;;10.84;67.15
1472;BME280;963;42.644;23.336;2023-04-01T18:06:17;93083.16;;;11.02;64.82
1472;BME280;963;42.644;23.336;2023-04-01T18:14:39;93111.84;;;10.82;64.59
1472;BME280;963;42.644;23.336;2023-04-01T18:17:47;93120.03;;;10.94;64.89
1472;BME280;963;42.644;23.336;2023-04-01T18:23:00;93135.84;;;10.94;66.12
1472;BME280;963;42.644;23.336;2023-04-01T18:25:43;93136.94;;;11.01;66.60
1472;BME280;963;42.644;23.336;2023-04-01T18:28:31;93130.44;;;11.23;69.32
1472;BME280;963;42.644;23.336;2023-04-01T18:39:16;93109.84;;;11.04;67.03
1472;BME280;963;42.644;23.336;2023-04-01T18:47:25;93135.06;;;10.98;63.06
1472;BME280;963;42.644;23.336;2023-04-01T18:52:55;93149.75;;;10.91;63.58
1472;BME280;963;42.644;23.336;2023-04-01T18:55:34;93142.50;;;11.17;63.87
1472;BME280;963;42.644;23.336;2023-04-01T18:58:20;93138.66;;;11.32;61.64
1472;BME280;963;42.644;23.336;2023-04-01T19:03:23;93136.56;;;10.99;62.16
1472;BME280;963;42.644;23.336;2023-04-01T19:05:53;93148.94;;;11.05;61.72
1472;BME280;963;42.644;23.336;2023-04-01T19:08:33;93144.78;;;11.08;60.95
1472;BME280;963;42.644;23.336;2023-04-01T19:17:01;93166.66;;;10.94;61.55
1472;BME280;963;42.644;23.336;2023-04-01T19:19:47;93192.09;;;11.15;62.19
1472;BME280;963;42.644;23.336;2023-04-01T19:22:21;93189.84;;;11.24;61.66
1472;BME280;963;42.644;23.336;2023-04-01T19:30:39;93180.09;;;11.14;60.99
1472;BME280;963;42.644;23.336;2023-04-01T19:33:36;93188.38;;;11.09;61.64
1472;BME280;963;42.644;23.336;2023-04-01T19:41:41;93198.19;;;11.05;61.38
1472;BME280;963;42.644;23.336;2023-04-01T19:44:35;93208.31;;;11.06;61.91
1472;BME280;963;42.644;23.336;2023-04-01T19:52:40;93213.56;;;11.17;62.53
1472;BME280;963;42.644;23.336;2023-04-01T19:55:46;93213.16;;;11.15;62.50
1472;BME280;963;42.644;23.336;2023-04-01T19:58:36;93223.38;;;10.99;63.28
1472;BME280;963;42.644;23.336;2023-04-01T20:01:10;93236.53;;;11.02;63.15
1472;BME280;963;42.644;23.336;2023-04-01T20:11:56;93203.53;;;10.76;59.17
1472;BME280;963;42.644;23.336;2023-04-01T20:14:40;93214.81;;;10.73;58.10
1472;BME280;963;42.644;23.336;2023-04-01T20:19:53;93199.84;;;10.52;58.15
1472;BME280;963;42.644;23.336;2023-04-01T20:22:25;93216.31;;;10.74;57.79
1472;BME280;963;42.644;23.336;2023-04-01T20:24:59;93208.78;;;10.76;58.22
1472;BME280;963;42.644;23.336;2023-04-01T20:27:31;93226.41;;;10.93;59.10
1472;BME280;963;42.644;23.336;2023-04-01T20:36:13;93223.69;;;11.22;57.29
1472;BME280;963;42.644;23.336;2023-04-01T20:45:31;93222.66;;;10.91;58.39
1472;BME280;963;42.644;23.336;2023-04-01T20:51:14;93210.22;;;10.99;58.97
1472;BME280;963;42.644;23.336;2023-04-01T20:54:05;93214.34;;;11.00;59.68
1472;BME280;963;42.644;23.336;2023-04-01T20:56:59;93213.19;;;11.08;59.72
1472;BME280;963;42.644;23.336;2023-04-01T21:11:04;93220.78;;;10.91;57.84
1472;BME280;963;42.644;23.336;2023-04-01T21:13:40;93229.78;;;10.98;58.12
1472;BME280;963;42.644;23.336;2023-04-01T21:22:05;93221.47;;;11.06;57.57
1472;BME280;963;42.644;23.336;2023-04-01T21:30:31;93217.81;;;10.79;56.40
1472;BME280;963;42.644;23.336;2023-04-01T21:33:20;93235.00;;;11.05;55.99
1472;BME280;963;42.644;23.336;2023-04-01T21:36:20;93232.38;;;11.05;55.55
1472;BME280;963;42.644;23.336;2023-04-01T21:39:19;93242.22;;;10.90;55.86
1472;BME280;963;42.644;23.336;2023-04-01T22:06:37;93239.22;;;10.77;55.60
1472;BME280;963;42.644;23.336;2023-04-01T22:09:11;93239.19;;;10.91;55.14
1472;BME280;963;42.644;23.336;2023-04-01T22:27:37;93220.78;;;10.88;55.24
1472;BME280;963;42.644;23.336;2023-04-01T22:30:32;93223.78;;;10.93;54.81
1472;BME280;963;42.644;23.336;2023-04-01T22:33:06;93238.03;;;11.00;54.02
1472;BME280;963;42.644;23.336;2023-04-01T22:43:51;93247.09;;;10.91;53.45
1472;BME280;963;42.644;23.336;2023-04-01T22:46:23;93255.34;;;10.93;53.89
1472;BME280;963;42.644;23.336;2023-04-01T22:51:44;93251.56;;;10.98;53.09
1472;BME280;963;42.644;23.336;2023-04-01T22:54:21;93231.28;;;10.99;52.65
1472;BME280;963;42.644;23.336;2023-04-01T22:56:59;93266.94;;;11.14;52.66
1472;BME280;963;42.644;23.336;2023-04-01T23:02:16;93262.13;;;10.87;53.52
1472;BME280;963;42.644;23.336;2023-04-01T23:04:47;93260.59;;;11.01;52.96
1472;BME280;963;42.644;23.336;2023-04-01T23:10:05;93257.59;;;10.95;53.30
1472;BME280;963;42.644;23.336;2023-04-01T23:12:38;93265.91;;;10.79;53.85
1472;BME280;963;42.644;23.336;2023-04-01T23:15:12;93258.34;;;10.95;53.58
1472;BME280;963;42.644;23.336;2023-04-01T23:28:49;93269.63;;;11.00;53.14
1472;BME280;963;42.644;23.336;2023-04-01T23:34:20;93281.31;;;10.84;54.38
1472;BME280;963;42.644;23.336;2023-04-01T23:36:51;93278.66;;;10.91;53.26
1472;BME280;963;42.644;23.336;2023-04-01T23:42:11;93271.16;;;10.86;52.71
1472;BME280;963;42.644;23.336;2023-04-01T23:44:38;93266.25;;;10.95;53.21
1472;BME280;963;42.644;23.336;2023-04-01T23:47:06;93268.13;;;10.99;52.50
1472;BME280;963;42.644;23.336;2023-04-01T23:49:40;93279.00;;;11.01;52.73
1472;BME280;963;42.644;23.336;2023-04-01T23:52:25;93274.88;;;11.03;52.33
1472;BME280;963;42.644;23.336;2023-04-01T23:54:57;93275.63;;;11.00;52.43
1472;BME280;963;42.644;23.336;2023-04-01T23:57:33;93268.13;;;10.91;52.67
